createdAt,value
2018-08-03T00:01:40.011Z,99.90
2018-08-03T00:04:08.152Z,99.90
2018-08-03T00:06:36.307Z,99.90
2018-08-03T00:09:07.342Z,99.90
2018-08-03T00:11:35.494Z,99.90
2018-08-03T00:14:03.626Z,99.90
2018-08-03T00:16:31.803Z,99.90
2018-08-03T00:19:00.151Z,99.90
2018-08-03T00:21:28.309Z,99.90
2018-08-03T00:23:56.475Z,99.90
2018-08-03T00:26:24.645Z,99.90
2018-08-03T00:28:52.772Z,99.90
2018-08-03T00:31:21.536Z,99.90
2018-08-03T00:33:49.734Z,99.90
2018-08-03T00:36:17.926Z,99.90
2018-08-03T00:38:46.182Z,99.90
2018-08-03T00:43:42.271Z,99.90
2018-08-03T00:46:10.415Z,99.90
2018-08-03T00:48:38.573Z,99.90
2018-08-03T00:51:06.718Z,99.90
2018-08-03T00:53:34.865Z,99.90
2018-08-03T00:56:03.119Z,99.90
2018-08-03T00:58:31.287Z,99.90
2018-08-03T01:00:59.443Z,99.90
2018-08-03T01:03:27.583Z,99.90
2018-08-03T01:05:55.703Z,99.90
2018-08-03T01:08:23.835Z,99.90
2018-08-03T01:10:51.953Z,99.90
2018-08-03T01:13:20.073Z,99.90
2018-08-03T01:15:48.201Z,99.90
2018-08-03T01:18:16.294Z,99.90
2018-08-03T01:20:44.415Z,99.90
2018-08-03T01:23:12.514Z,99.90
2018-08-03T01:25:40.658Z,99.90
2018-08-03T01:30:36.744Z,99.90
2018-08-03T01:33:04.843Z,99.90
2018-08-03T01:35:32.967Z,99.90
2018-08-03T01:38:01.161Z,99.90
2018-08-03T01:40:29.270Z,99.90
2018-08-03T01:42:57.367Z,99.90
2018-08-03T01:45:25.458Z,99.90
2018-08-03T01:47:53.621Z,99.90
2018-08-03T01:50:21.725Z,99.90
2018-08-03T01:52:49.933Z,99.90
2018-08-03T01:55:18.022Z,99.90
2018-08-03T01:57:46.138Z,99.90
2018-08-03T02:00:14.236Z,99.90
2018-08-03T02:02:42.330Z,99.90
2018-08-03T02:05:10.561Z,99.90
2018-08-03T02:07:38.654Z,99.90
2018-08-03T02:10:06.742Z,99.90
2018-08-03T02:12:34.871Z,99.90
2018-08-03T02:15:02.966Z,99.90
2018-08-03T02:17:31.166Z,99.90
2018-08-03T02:19:59.253Z,99.90
2018-08-03T02:22:27.341Z,99.90
2018-08-03T02:24:55.454Z,99.90
2018-08-03T02:27:23.539Z,99.90
2018-08-03T02:29:51.653Z,99.90
2018-08-03T02:32:19.788Z,99.90
2018-08-03T02:34:47.874Z,99.90
2018-08-03T02:37:15.993Z,99.90
2018-08-03T02:42:18.919Z,99.90
2018-08-03T02:44:47.047Z,99.90
2018-08-03T02:47:15.154Z,99.90
2018-08-03T02:49:46.445Z,99.90
2018-08-03T02:52:14.550Z,99.90
2018-08-03T02:54:42.662Z,99.90
2018-08-03T02:57:10.765Z,99.90
2018-08-03T02:59:38.937Z,99.90
2018-08-03T03:02:07.069Z,99.90
2018-08-03T03:04:35.169Z,99.90
2018-08-03T03:07:03.281Z,99.90
2018-08-03T03:09:31.681Z,99.90
2018-08-03T03:11:59.995Z,99.90
2018-08-03T03:14:28.086Z,99.90
2018-08-03T03:16:56.171Z,99.90
2018-08-03T03:19:24.274Z,99.90
2018-08-03T03:21:52.375Z,99.90
2018-08-03T03:24:20.453Z,99.90
2018-08-03T03:26:48.610Z,99.90
2018-08-03T03:29:16.693Z,99.90
2018-08-03T03:31:44.819Z,99.90
2018-08-03T03:34:13.385Z,99.90
2018-08-03T03:36:41.513Z,99.90
2018-08-03T03:39:11.653Z,99.90
2018-08-03T03:41:39.763Z,99.90
2018-08-03T03:44:07.938Z,99.90
2018-08-03T03:49:04.220Z,99.90
2018-08-03T03:51:32.357Z,99.90
2018-08-03T03:54:00.721Z,99.90
2018-08-03T03:56:28.834Z,99.90
2018-08-03T03:58:56.946Z,99.90
2018-08-03T04:01:25.029Z,99.90
2018-08-03T04:03:53.257Z,99.90
2018-08-03T04:06:21.410Z,99.90
2018-08-03T04:08:49.501Z,99.90
2018-08-03T04:11:17.597Z,99.90
2018-08-03T04:13:45.692Z,99.90
2018-08-03T04:16:13.849Z,99.90
2018-08-03T04:23:37.846Z,99.90
2018-08-03T04:26:06.049Z,99.90
2018-08-03T04:28:34.174Z,99.90
2018-08-03T04:31:02.254Z,99.90
2018-08-03T04:33:30.367Z,99.90
2018-08-03T04:35:58.441Z,99.90
2018-08-03T04:38:26.543Z,99.90
2018-08-03T04:40:54.671Z,99.90
2018-08-03T04:43:22.748Z,99.90
2018-08-03T04:45:50.839Z,99.90
2018-08-03T04:48:19.080Z,99.90
2018-08-03T04:50:47.164Z,99.90
2018-08-03T04:53:15.257Z,99.90
2018-08-03T04:55:43.394Z,99.90
2018-08-03T04:58:11.529Z,99.90
2018-08-03T05:00:39.652Z,99.90
2018-08-03T05:03:07.794Z,99.90
2018-08-03T05:05:35.908Z,99.90
2018-08-03T05:08:04.000Z,99.90
2018-08-03T05:10:32.115Z,99.90
2018-08-03T05:13:00.204Z,99.90
2018-08-03T05:15:28.329Z,99.90
2018-08-03T05:17:56.454Z,99.90
2018-08-03T05:20:24.567Z,99.90
2018-08-03T05:22:52.641Z,99.90
2018-08-03T05:25:20.874Z,99.90
2018-08-03T05:27:49.010Z,99.90
2018-08-03T05:30:17.123Z,99.90
2018-08-03T05:32:45.225Z,99.90
2018-08-03T05:35:13.329Z,99.90
2018-08-03T05:37:41.443Z,99.90
2018-08-03T05:40:09.605Z,99.90
2018-08-03T05:42:37.754Z,99.90
2018-08-03T05:45:07.048Z,99.90
2018-08-03T05:47:35.212Z,99.90
2018-08-03T05:50:03.490Z,99.90
2018-08-03T05:52:31.596Z,99.90
2018-08-03T05:54:59.669Z,99.90
2018-08-03T05:57:27.760Z,99.90
2018-08-03T05:59:56.249Z,99.90
2018-08-03T06:02:24.446Z,99.90
2018-08-03T06:04:52.854Z,99.90
2018-08-03T06:07:20.981Z,99.90
2018-08-03T06:09:49.087Z,99.90
2018-08-03T06:12:17.214Z,99.90
2018-08-03T06:14:45.319Z,99.90
2018-08-03T06:17:13.436Z,99.90
2018-08-03T06:19:41.533Z,99.90
2018-08-03T06:22:09.655Z,99.90
2018-08-03T06:24:37.783Z,99.90
2018-08-03T06:27:06.091Z,99.90
2018-08-03T06:32:02.144Z,99.90
2018-08-03T06:34:30.262Z,99.90
2018-08-03T06:36:58.371Z,99.90
2018-08-03T06:39:26.629Z,99.90
2018-08-03T06:41:54.743Z,99.90
2018-08-03T06:44:22.845Z,99.90
2018-08-03T06:46:50.966Z,99.90
2018-08-03T06:49:19.047Z,99.90
2018-08-03T06:51:47.153Z,99.90
2018-08-03T06:54:15.293Z,99.90
2018-08-03T06:56:43.396Z,99.90
2018-08-03T06:59:11.526Z,99.90
2018-08-03T07:01:39.840Z,99.90
2018-08-03T07:04:07.934Z,99.90
2018-08-03T07:06:36.021Z,99.90
2018-08-03T07:09:07.193Z,99.90
2018-08-03T07:11:35.436Z,99.90
2018-08-03T07:14:03.538Z,99.90
2018-08-03T07:16:31.661Z,99.90
2018-08-03T07:18:59.741Z,99.90
2018-08-03T07:21:27.884Z,99.90
2018-08-03T07:23:56.670Z,99.90
2018-08-03T07:26:25.167Z,99.90
2018-08-03T07:28:53.612Z,99.90
2018-08-03T07:31:21.772Z,99.90
2018-08-03T07:33:50.212Z,99.90
2018-08-03T07:36:18.327Z,99.90
2018-08-03T07:38:46.637Z,99.90
2018-08-03T07:41:14.759Z,99.90
2018-08-03T07:43:42.902Z,99.90
2018-08-03T07:46:11.016Z,99.90
2018-08-03T07:48:39.163Z,99.90
2018-08-03T07:51:07.232Z,99.90
2018-08-03T07:53:35.318Z,99.90
2018-08-03T07:56:03.414Z,99.90
2018-08-03T07:58:31.625Z,99.90
2018-08-03T08:00:59.730Z,99.90
2018-08-03T08:03:27.867Z,99.90
2018-08-03T08:05:56.013Z,99.90
2018-08-03T08:08:24.121Z,99.90
2018-08-03T08:10:52.288Z,99.90
2018-08-03T08:13:20.417Z,99.90
2018-08-03T08:15:48.508Z,99.90
2018-08-03T08:18:16.630Z,99.90
2018-08-03T08:20:44.749Z,99.90
2018-08-03T08:23:12.832Z,99.90
2018-08-03T08:25:40.949Z,99.90
2018-08-03T08:28:09.115Z,99.90
2018-08-03T08:30:37.212Z,99.90
2018-08-03T08:33:05.303Z,99.90
2018-08-03T08:35:33.424Z,99.90
2018-08-03T08:38:01.573Z,99.90
2018-08-03T08:40:29.685Z,99.90
2018-08-03T08:42:57.806Z,99.90
2018-08-03T08:45:25.922Z,99.90
2018-08-03T08:47:54.012Z,99.90
2018-08-03T08:50:27.987Z,99.90
2018-08-03T08:52:56.105Z,99.90
2018-08-03T08:55:24.205Z,99.90
2018-08-03T08:57:52.319Z,99.90
2018-08-03T09:00:20.535Z,99.90
2018-08-03T09:02:48.669Z,99.90
2018-08-03T09:05:16.777Z,99.90
2018-08-03T09:07:44.961Z,99.90
2018-08-03T09:10:13.069Z,99.90
2018-08-03T09:12:41.225Z,99.90
2018-08-03T09:15:09.317Z,99.90
2018-08-03T09:17:37.435Z,99.90
2018-08-03T09:20:05.843Z,99.90
2018-08-03T09:22:33.959Z,99.90
2018-08-03T09:25:02.289Z,99.90
2018-08-03T09:27:30.474Z,99.90
2018-08-03T09:29:58.606Z,99.90
2018-08-03T09:32:26.747Z,99.90
2018-08-03T09:34:54.877Z,99.90
2018-08-03T09:37:22.998Z,99.90
2018-08-03T09:39:51.403Z,99.90
2018-08-03T09:42:19.562Z,99.90
2018-08-03T09:44:47.677Z,99.90
2018-08-03T09:47:15.803Z,99.90
2018-08-03T09:49:43.945Z,99.90
2018-08-03T09:52:12.046Z,99.90
2018-08-03T09:54:40.197Z,99.90
2018-08-03T09:57:08.309Z,99.90
2018-08-03T09:59:36.420Z,99.90
2018-08-03T10:02:04.542Z,99.90
2018-08-03T10:04:32.646Z,99.90
2018-08-03T10:07:00.813Z,99.90
2018-08-03T10:09:28.956Z,99.90
2018-08-03T10:11:57.054Z,99.90
2018-08-03T10:14:25.157Z,99.90
2018-08-03T10:16:53.286Z,99.90
2018-08-03T10:19:21.551Z,99.90
2018-08-03T10:21:49.707Z,99.90
2018-08-03T10:24:17.821Z,99.90
2018-08-03T10:26:45.987Z,99.90
2018-08-03T10:29:14.117Z,99.90
2018-08-03T10:31:42.241Z,99.90
2018-08-03T10:34:10.346Z,99.90
2018-08-03T10:36:38.505Z,99.90
2018-08-03T10:39:08.012Z,99.90
2018-08-03T10:41:36.537Z,99.90
2018-08-03T10:44:04.687Z,99.90
2018-08-03T10:46:32.788Z,99.90
2018-08-03T10:49:00.986Z,99.90
2018-08-03T10:51:29.255Z,99.90
2018-08-03T10:53:57.360Z,99.90
2018-08-03T10:56:25.481Z,99.90
2018-08-03T10:58:53.658Z,99.90
2018-08-03T11:01:21.834Z,99.90
2018-08-03T11:03:49.858Z,99.80
2018-08-03T11:06:17.973Z,98.80
2018-08-03T11:08:46.089Z,96.70
2018-08-03T11:11:14.232Z,97.10
2018-08-03T11:13:42.429Z,94.80
2018-08-03T11:16:10.445Z,94.60
2018-08-03T11:18:38.552Z,93.80
2018-08-03T11:21:06.889Z,93.30
2018-08-03T11:23:35.029Z,93.70
2018-08-03T11:26:03.129Z,92.40
2018-08-03T11:28:31.273Z,92.20
2018-08-03T11:30:59.387Z,92.30
2018-08-03T11:33:27.508Z,92.80
2018-08-03T11:35:55.773Z,91.30
2018-08-03T11:38:23.892Z,92.00
2018-08-03T11:43:19.887Z,90.40
2018-08-03T11:45:47.992Z,90.50
2018-08-03T11:48:16.156Z,89.70
2018-08-03T11:50:44.249Z,89.50
2018-08-03T11:53:12.353Z,87.50
2018-08-03T11:55:40.484Z,88.10
2018-08-03T11:58:08.632Z,87.20
2018-08-03T12:00:36.772Z,87.10
2018-08-03T12:03:04.914Z,87.00
2018-08-03T12:05:33.029Z,86.40
2018-08-03T12:08:01.155Z,86.30
2018-08-03T12:10:29.369Z,85.90
2018-08-03T12:12:57.494Z,84.60
2018-08-03T12:15:25.613Z,83.40
2018-08-03T12:17:53.845Z,82.60
2018-08-03T12:20:21.909Z,81.30
2018-08-03T12:22:50.208Z,82.10
2018-08-03T12:25:18.349Z,81.60
2018-08-03T12:27:46.485Z,81.10
2018-08-03T12:30:14.600Z,80.80
2018-08-03T12:32:42.793Z,79.40
2018-08-03T12:35:10.908Z,79.00
2018-08-03T12:37:39.042Z,79.20
2018-08-03T12:40:07.137Z,78.80
2018-08-03T12:42:35.286Z,77.70
2018-08-03T12:45:03.409Z,76.40
2018-08-03T12:47:31.578Z,75.70
2018-08-03T12:49:59.714Z,75.90
2018-08-03T12:52:27.912Z,75.60
2018-08-03T12:54:55.979Z,73.60
2018-08-03T12:57:24.145Z,71.60
2018-08-03T12:59:52.368Z,70.20
2018-08-03T13:02:20.474Z,68.40
2018-08-03T13:04:48.609Z,68.40
2018-08-03T13:07:16.791Z,66.50
2018-08-03T13:09:44.901Z,66.00
2018-08-03T13:12:13.022Z,63.70
2018-08-03T13:17:09.018Z,60.10
2018-08-03T13:19:37.198Z,59.30
2018-08-03T13:22:05.405Z,58.30
2018-08-03T13:24:33.642Z,57.00
2018-08-03T13:27:01.733Z,57.50
2018-08-03T13:29:29.901Z,56.70
2018-08-03T13:31:57.933Z,57.30
2018-08-03T13:34:26.050Z,56.20
2018-08-03T13:36:54.205Z,55.30
2018-08-03T13:39:22.326Z,55.70
2018-08-03T13:41:50.430Z,55.20
2018-08-03T13:44:18.526Z,54.40
2018-08-03T13:46:46.659Z,53.80
2018-08-03T13:49:14.784Z,53.30
2018-08-03T13:51:42.902Z,52.90
2018-08-03T13:54:11.023Z,53.30
2018-08-03T13:56:39.144Z,54.00
2018-08-03T13:59:07.297Z,52.80
2018-08-03T14:01:44.225Z,51.20
2018-08-03T14:04:12.439Z,50.40
2018-08-03T14:06:40.505Z,49.20
2018-08-03T14:09:08.637Z,47.60
2018-08-03T14:11:36.777Z,48.00
2018-08-03T14:14:04.903Z,47.60
2018-08-03T14:16:34.015Z,47.30
2018-08-03T14:19:02.254Z,47.70
2018-08-03T14:21:30.381Z,47.10
2018-08-03T14:23:58.490Z,46.50
2018-08-03T14:26:26.700Z,46.00
2018-08-03T14:28:54.836Z,46.80
2018-08-03T14:31:22.954Z,46.60
2018-08-03T14:33:51.087Z,47.00
2018-08-03T14:36:19.179Z,47.10
2018-08-03T14:38:47.319Z,46.20
2018-08-03T14:41:15.471Z,45.90
2018-08-03T14:43:43.549Z,45.20
2018-08-03T14:46:11.664Z,44.70
2018-08-03T14:48:39.813Z,45.20
2018-08-03T14:51:08.077Z,45.80
2018-08-03T14:53:36.192Z,46.10
2018-08-03T14:56:04.347Z,46.00
2018-08-03T14:58:32.466Z,46.60
2018-08-03T15:01:00.569Z,46.50
2018-08-03T15:03:28.653Z,46.20
2018-08-03T15:05:57.850Z,46.60
2018-08-03T15:08:25.952Z,47.60
2018-08-03T15:10:54.085Z,48.90
2018-08-03T15:13:22.168Z,50.50
2018-08-03T15:15:50.328Z,51.50
2018-08-03T15:18:18.428Z,52.70
2018-08-03T15:20:46.541Z,54.40
2018-08-03T15:23:14.637Z,53.80
2018-08-03T15:25:42.757Z,53.80
2018-08-03T15:28:11.073Z,53.50
2018-08-03T15:33:07.621Z,54.00
2018-08-03T15:35:35.779Z,53.50
2018-08-03T15:38:03.902Z,54.60
2018-08-03T15:40:32.077Z,54.40
2018-08-03T15:43:00.182Z,54.90
2018-08-03T15:45:28.276Z,54.80
2018-08-03T15:50:24.347Z,55.10
2018-08-03T15:52:52.691Z,55.60
2018-08-03T15:55:20.867Z,55.40
2018-08-03T15:57:49.077Z,56.60
2018-08-03T16:00:17.197Z,57.30
2018-08-03T16:02:45.301Z,56.70
2018-08-03T16:05:13.567Z,56.00
2018-08-03T16:07:41.653Z,56.20
2018-08-03T16:10:09.744Z,56.30
2018-08-03T16:12:37.833Z,56.40
2018-08-03T16:15:06.387Z,56.30
2018-08-03T16:17:34.473Z,56.00
2018-08-03T16:20:02.599Z,56.60
2018-08-03T16:22:30.845Z,56.70
2018-08-03T16:24:58.936Z,56.50
2018-08-03T16:27:27.029Z,56.00
2018-08-03T16:29:55.112Z,56.10
2018-08-03T16:32:23.221Z,56.10
2018-08-03T16:34:51.319Z,56.30
2018-08-03T16:37:19.412Z,56.60
2018-08-03T16:39:47.485Z,56.20
2018-08-03T16:44:44.361Z,56.60
2018-08-03T16:47:12.581Z,56.50
2018-08-03T16:49:40.668Z,56.40
2018-08-03T16:52:08.797Z,55.70
2018-08-03T16:54:36.886Z,55.90
2018-08-03T16:57:05.016Z,56.20
2018-08-03T17:02:01.033Z,56.40
2018-08-03T17:04:29.114Z,56.90
2018-08-03T17:06:57.218Z,56.40
2018-08-03T17:09:25.383Z,56.40
2018-08-03T17:11:53.473Z,58.00
2018-08-03T17:14:21.561Z,58.50
2018-08-03T17:16:49.658Z,59.30
2018-08-03T17:19:17.752Z,59.50
2018-08-03T17:21:45.898Z,59.60
2018-08-03T17:24:14.010Z,59.50
2018-08-03T17:26:42.093Z,60.60
2018-08-03T17:29:10.171Z,60.30
2018-08-03T17:31:38.276Z,59.80
2018-08-03T17:34:06.363Z,60.20
2018-08-03T17:36:34.494Z,59.60
2018-08-03T17:39:02.642Z,59.60
2018-08-03T17:41:30.779Z,59.40
2018-08-03T17:43:58.913Z,59.70
2018-08-03T17:46:27.366Z,60.30
2018-08-03T17:48:55.554Z,60.60
2018-08-03T17:51:23.777Z,61.10
2018-08-03T17:53:51.870Z,61.30
2018-08-03T17:56:20.067Z,62.00
2018-08-03T17:58:48.161Z,62.70
2018-08-03T18:01:16.291Z,62.80
2018-08-03T18:03:44.357Z,62.80
2018-08-03T18:06:12.487Z,62.40
2018-08-03T18:08:40.787Z,63.10
2018-08-03T18:11:08.923Z,63.00
2018-08-03T18:13:37.064Z,63.50
2018-08-03T18:16:05.546Z,63.80
2018-08-03T18:18:33.642Z,64.00
2018-08-03T18:21:01.803Z,64.20
2018-08-03T18:23:29.909Z,64.60
2018-08-03T18:25:57.998Z,65.00
2018-08-03T18:28:26.268Z,65.00
2018-08-03T18:30:54.373Z,65.40
2018-08-03T18:33:22.618Z,65.50
2018-08-03T18:35:50.748Z,65.80
2018-08-03T18:38:18.836Z,66.20
2018-08-03T18:40:46.967Z,66.40
2018-08-03T18:45:42.983Z,66.90
2018-08-03T18:48:11.090Z,67.30
2018-08-03T18:50:39.187Z,67.50
2018-08-03T18:53:07.274Z,67.70
2018-08-03T18:55:35.402Z,68.00
2018-08-03T18:58:03.517Z,68.10
2018-08-03T19:00:31.598Z,68.30
2018-08-03T19:02:59.730Z,68.70
2018-08-03T19:05:27.838Z,69.10
2018-08-03T19:07:55.920Z,69.20
2018-08-03T19:10:24.014Z,69.60
2018-08-03T19:15:19.999Z,70.50
2018-08-03T19:17:48.077Z,70.90
2018-08-03T19:20:16.153Z,71.70
2018-08-03T19:22:44.237Z,72.10
2018-08-03T19:25:12.345Z,72.40
2018-08-03T19:27:40.438Z,72.80
2018-08-03T19:30:08.553Z,73.30
2018-08-03T19:32:36.640Z,73.80
2018-08-03T19:35:04.767Z,73.60
2018-08-03T19:37:32.997Z,74.00
2018-08-03T19:40:01.107Z,73.70
2018-08-03T19:42:29.199Z,73.70
2018-08-03T19:44:57.299Z,73.70
2018-08-03T19:47:25.414Z,74.30
2018-08-03T19:49:53.515Z,74.70
2018-08-03T19:52:21.619Z,74.60
2018-08-03T19:54:49.723Z,75.00
2018-08-03T19:57:17.862Z,75.10
2018-08-03T19:59:46.006Z,75.20
2018-08-03T20:02:14.085Z,75.40
2018-08-03T20:04:42.173Z,75.70
2018-08-03T20:07:10.301Z,76.40
2018-08-03T20:09:38.454Z,76.90
2018-08-03T20:12:06.575Z,77.60
2018-08-03T20:14:34.791Z,78.40
2018-08-03T20:17:02.875Z,79.00
2018-08-03T20:19:31.012Z,79.70
2018-08-03T20:21:59.186Z,80.20
2018-08-03T20:24:27.276Z,80.30
2018-08-03T20:26:55.398Z,81.10
2018-08-03T20:29:23.503Z,81.80
2018-08-03T20:31:51.606Z,81.90
2018-08-03T20:34:19.684Z,82.10
2018-08-03T20:36:47.805Z,82.50
2018-08-03T20:39:15.953Z,83.10
2018-08-03T20:41:44.017Z,83.40
2018-08-03T20:44:12.186Z,84.00
2018-08-03T20:46:40.281Z,84.00
2018-08-03T20:49:08.362Z,84.40
2018-08-03T20:51:36.520Z,85.60
2018-08-03T20:54:04.634Z,86.50
2018-08-03T20:59:00.786Z,89.60
2018-08-03T21:01:28.997Z,89.90
2018-08-03T21:03:57.229Z,90.20
2018-08-03T21:06:25.360Z,90.40
2018-08-03T21:08:53.476Z,90.70
2018-08-03T21:11:21.565Z,90.60
2018-08-03T21:13:49.717Z,90.90
2018-08-03T21:16:17.833Z,91.50
2018-08-03T21:18:45.943Z,91.90
2018-08-03T21:21:14.069Z,92.60
2018-08-03T21:23:42.200Z,92.60
2018-08-03T21:26:10.281Z,92.90
2018-08-03T21:28:38.397Z,92.90
2018-08-03T21:31:06.520Z,93.80
2018-08-03T21:33:34.625Z,94.50
2018-08-03T21:36:02.721Z,95.00
2018-08-03T21:38:30.840Z,95.40
2018-08-03T21:40:58.931Z,95.90
2018-08-03T21:43:27.037Z,96.10
2018-08-03T21:45:55.160Z,96.50
2018-08-03T21:48:23.302Z,96.90
2018-08-03T21:50:51.433Z,97.60
2018-08-03T21:53:19.588Z,98.00
2018-08-03T21:55:47.664Z,98.60
2018-08-03T21:58:15.759Z,99.10
2018-08-03T22:00:43.873Z,99.90
2018-08-03T22:03:11.995Z,99.90
2018-08-03T22:05:40.115Z,99.90
2018-08-03T22:08:08.226Z,99.90
2018-08-03T22:10:36.413Z,99.90
2018-08-03T22:13:04.529Z,99.90
2018-08-03T22:15:32.654Z,99.90
2018-08-03T22:18:00.979Z,99.90
2018-08-03T22:20:29.085Z,99.90
2018-08-03T22:22:57.201Z,99.90
2018-08-03T22:25:25.306Z,99.90
2018-08-03T22:27:53.405Z,99.90
2018-08-03T22:30:21.590Z,99.90
2018-08-03T22:32:49.755Z,99.90
2018-08-03T22:35:17.799Z,99.90
2018-08-03T22:40:13.887Z,99.90
2018-08-03T22:42:42.020Z,99.90
2018-08-03T22:47:38.094Z,99.90
2018-08-03T22:50:06.313Z,99.90
2018-08-03T22:52:34.412Z,99.90
2018-08-03T22:55:02.769Z,99.90
2018-08-03T22:57:30.934Z,99.90
2018-08-03T22:59:59.057Z,99.90
2018-08-03T23:02:27.157Z,99.90
2018-08-03T23:04:55.277Z,99.90
2018-08-03T23:07:23.370Z,99.90
2018-08-03T23:09:51.446Z,99.90
2018-08-03T23:12:19.550Z,99.90
2018-08-03T23:14:47.668Z,99.90
2018-08-03T23:17:15.806Z,99.90
2018-08-03T23:19:43.961Z,99.90
2018-08-03T23:22:12.077Z,99.90
2018-08-03T23:24:40.180Z,99.90
2018-08-03T23:27:08.335Z,99.90
2018-08-03T23:29:36.614Z,99.90
2018-08-03T23:32:04.807Z,99.90
2018-08-03T23:34:32.907Z,99.90
2018-08-03T23:37:01.026Z,99.90
2018-08-03T23:39:29.139Z,99.90
2018-08-03T23:41:57.295Z,99.90
2018-08-03T23:44:25.429Z,99.90
2018-08-03T23:46:53.534Z,99.90
2018-08-03T23:49:21.659Z,99.90
2018-08-03T23:51:49.784Z,99.90
2018-08-03T23:54:17.898Z,99.90
2018-08-03T23:56:46.002Z,99.90
2018-08-03T23:59:14.111Z,99.90
